Time;durP1;ratioP1;P1;durP2;ratioP2;P2;SDS_P1;SDS_P2;PMS_P1;PMS_P2;Temp;Humidity;BMP_temperature;BMP_pressure;BME280_temperature;BME280_humidity;BME280_pressure;Samples;Min_cycle;Max_cycle;Signal;HPM_P1;HPM_P2
2021/06/18 00:02:14;;;;;;;;;9.67;9.67;;;;;23.35;48.70;98753.22;4869773;28;102598;-82
2021/06/18 00:04:41;;;;;;;;;11.67;11.33;;;;;23.26;48.69;98746.59;4836250;28;102208;-81
2021/06/18 00:07:09;;;;;;;;;9.33;9.00;;;;;23.22;48.57;98735.31;4829085;28;105881;-82
2021/06/18 00:09:38;;;;;;;;;14.00;13.33;;;;;23.23;48.69;98738.91;4838878;28;102610;-81
2021/06/18 00:12:19;;;;;;;;;11.33;10.67;;;;;23.30;48.55;98750.47;4827026;28;102102;-81
2021/06/18 00:14:50;;;;;;;;;10.00;9.00;;;;;23.25;48.42;98739.44;4820609;28;102761;-82
2021/06/18 00:17:21;;;;;;;;;9.00;9.00;;;;;23.23;48.74;98733.38;4832584;28;104951;-82
2021/06/18 00:19:55;;;;;;;;;10.00;8.67;;;;;23.22;48.61;98735.31;4849710;28;102813;-81
2021/06/18 00:22:32;;;;;;;;;10.67;10.00;;;;;23.28;48.61;98741.66;4892379;28;102517;-82
2021/06/18 00:25:10;;;;;;;;;9.33;9.33;;;;;23.23;48.63;98742.50;4887951;28;104190;-82
2021/06/18 00:27:49;;;;;;;;;9.00;8.67;;;;;23.24;48.75;98741.34;4870664;28;110087;-82
2021/06/18 00:30:36;;;;;;;;;10.33;10.00;;;;;23.14;48.56;98728.41;4807397;28;102556;-82
2021/06/18 00:33:32;;;;;;;;;12.67;11.67;;;;;23.23;48.51;98741.66;4865302;27;5549024;-81
2021/06/18 00:36:09;;;;;;;;;11.33;10.67;;;;;23.14;48.46;98739.44;5059731;27;102585;-81
2021/06/18 00:38:55;;;;;;;;;13.00;13.00;;;;;23.18;48.47;98741.66;4984795;27;107465;-82
2021/06/18 00:41:42;;;;;;;;;10.00;10.00;;;;;23.13;48.60;98729.53;5039898;27;101316;-82
2021/06/18 00:44:27;;;;;;;;;9.67;9.67;;;;;23.12;48.44;98730.63;4969810;27;101971;-81
2021/06/18 00:47:10;;;;;;;;;13.67;11.67;;;;;23.22;48.47;98737.25;5041712;27;102102;-82
2021/06/18 00:49:54;;;;;;;;;10.33;10.00;;;;;23.20;48.32;98739.44;5046157;27;109062;-81
2021/06/18 00:52:33;;;;;;;;;10.33;9.33;;;;;23.18;48.28;98734.22;4971972;27;102312;-81
2021/06/18 00:55:10;;;;;;;;;12.33;12.00;;;;;23.19;48.54;98737.81;5042313;27;102917;-82
2021/06/18 00:57:50;;;;;;;;;12.00;11.67;;;;;23.14;48.25;98731.16;5039379;27;102241;-81
2021/06/18 01:00:29;;;;;;;;;10.33;10.33;;;;;23.16;48.25;98732.81;4943948;27;106204;-81
2021/06/18 01:03:15;;;;;;;;;10.33;9.33;;;;;23.10;48.26;98726.47;4961549;27;102783;-82
2021/06/18 01:05:57;;;;;;;;;12.33;11.33;;;;;23.09;47.95;98719.34;4921249;27;101870;-81
2021/06/18 01:08:41;;;;;;;;;10.67;10.00;;;;;23.09;48.12;98720.16;4964183;27;102278;-82
2021/06/18 01:11:59;;;;;;;;;10.33;10.33;;;;;23.14;48.30;98722.88;4955643;27;108582;-82
2021/06/18 01:14:47;;;;;;;;;8.67;8.67;;;;;23.16;48.23;98728.13;4930492;27;104999;-82
2021/06/18 01:17:28;;;;;;;;;11.00;9.67;;;;;23.13;47.90;98721.25;4964802;27;103337;-82
2021/06/18 01:20:34;;;;;;;;;9.00;9.00;;;;;23.09;48.14;98714.66;4998227;27;102484;-82
2021/06/18 01:23:26;;;;;;;;;9.67;9.67;;;;;23.09;47.90;98703.63;4938274;27;107310;-81
2021/06/18 01:26:02;;;;;;;;;8.00;8.00;;;;;23.03;48.02;98701.97;4921236;27;102396;-82
2021/06/18 01:28:49;;;;;;;;;11.00;11.00;;;;;23.03;48.11;98707.47;5019928;27;103181;-81
2021/06/18 01:31:39;;;;;;;;;10.00;9.67;;;;;23.08;48.08;98707.47;5020908;27;102377;-82
2021/06/18 01:34:31;;;;;;;;;12.00;10.67;;;;;23.08;47.98;98710.25;5014798;27;107387;-81
2021/06/18 01:37:13;;;;;;;;;9.33;9.00;;;;;23.09;47.90;98708.31;4962538;27;102111;-82
2021/06/18 01:39:50;;;;;;;;;10.00;9.00;;;;;23.01;47.92;98695.09;5013936;27;102241;-82
2021/06/18 01:42:43;;;;;;;;;9.00;9.00;;;;;23.07;47.87;98711.34;4946981;27;103546;-82
2021/06/18 01:45:29;;;;;;;;;9.33;9.33;;;;;23.06;47.71;98709.69;5006646;27;102938;-81
2021/06/18 01:48:14;;;;;;;;;13.00;11.00;;;;;23.06;47.82;98708.84;5010662;28;103087;-81
2021/06/18 01:50:56;;;;;;;;;12.00;11.00;;;;;23.06;47.67;98714.38;5006565;27;102034;-82
2021/06/18 01:53:29;;;;;;;;;10.33;9.00;;;;;22.94;47.81;98698.13;5017569;27;102433;-82
2021/06/18 01:56:07;;;;;;;;;11.00;8.67;;;;;23.03;47.84;98714.94;4997413;27;103233;-82
2021/06/18 01:58:45;;;;;;;;;10.00;8.67;;;;;23.03;47.52;98713.00;5018590;27;102371;-82
2021/06/18 02:01:28;;;;;;;;;8.00;8.00;;;;;22.93;47.55;98703.91;5031135;27;102520;-82
2021/06/18 02:04:15;;;;;;;;;9.67;8.67;;;;;22.91;47.69;98700.63;5001805;27;103272;-81
2021/06/18 02:06:53;;;;;;;;;11.67;11.00;;;;;22.85;47.63;98686.00;5017586;27;106254;-81
2021/06/18 02:09:26;;;;;;;;;10.00;8.67;;;;;22.94;47.69;98702.81;5014839;27;102176;-81
2021/06/18 02:12:15;;;;;;;;;10.67;9.33;;;;;22.90;47.31;98701.72;4991808;27;102802;-81
2021/06/18 02:15:00;;;;;;;;;10.00;8.00;;;;;22.97;47.77;98718.78;5003637;27;102567;-83
2021/06/18 02:17:51;;;;;;;;;10.00;10.00;;;;;22.98;47.91;98718.53;5025398;27;102593;-82
2021/06/18 02:20:51;;;;;;;;;7.00;7.00;;;;;22.86;47.45;98708.91;5053107;27;367883;-82
2021/06/18 02:23:32;;;;;;;;;11.33;9.00;;;;;22.90;47.49;98718.25;5032367;27;102179;-81
2021/06/18 02:26:07;;;;;;;;;7.33;7.00;;;;;22.93;47.66;98726.81;5044644;27;104693;-82
2021/06/18 02:28:40;;;;;;;;;12.00;10.00;;;;;22.97;47.44;98721.56;5010112;27;103036;-81
2021/06/18 02:31:14;;;;;;;;;9.67;9.33;;;;;22.95;46.99;98730.13;5015498;27;101967;-81
2021/06/18 02:34:03;;;;;;;;;10.00;10.00;;;;;22.91;47.33;98706.13;4993035;27;103010;-81
2021/06/18 02:36:40;;;;;;;;;9.67;9.33;;;;;22.89;46.88;98714.69;5035709;27;103245;-81
2021/06/18 02:39:18;;;;;;;;;12.33;9.33;;;;;22.90;46.93;98705.31;4996421;27;102558;-82
2021/06/18 02:41:58;;;;;;;;;7.00;7.00;;;;;22.93;46.56;98713.00;5024929;27;102369;-81
2021/06/18 02:44:34;;;;;;;;;11.00;10.00;;;;;22.93;46.89;98725.97;5061706;27;101892;-82
2021/06/18 02:47:41;;;;;;;;;8.00;7.67;;;;;22.90;47.32;98721.84;5028950;27;104479;-81
2021/06/18 02:50:15;;;;;;;;;8.00;8.00;;;;;22.89;46.81;98720.19;4966143;27;102413;-81
2021/06/18 02:53:05;;;;;;;;;8.00;8.00;;;;;22.86;46.74;98723.50;5036367;27;102194;-81
2021/06/18 02:55:51;;;;;;;;;8.67;8.67;;;;;22.80;46.26;98712.75;5014001;27;102381;-81
2021/06/18 02:59:02;;;;;;;;;10.33;8.67;;;;;22.82;46.89;98730.69;4956221;27;106316;-82
2021/06/18 03:01:41;;;;;;;;;10.00;8.33;;;;;22.85;46.54;98734.81;4975987;27;103311;-81
2021/06/18 03:04:29;;;;;;;;;7.00;6.33;;;;;22.86;46.54;98736.47;5022019;27;102069;-81
2021/06/18 03:07:16;;;;;;;;;9.00;7.67;;;;;22.82;46.53;98730.69;5013395;27;102712;-81
2021/06/18 03:09:54;;;;;;;;;9.33;8.67;;;;;22.78;46.75;98731.53;5020954;27;107879;-80
2021/06/18 03:12:40;;;;;;;;;7.33;7.00;;;;;22.78;46.31;98731.53;4944311;27;102849;-81
2021/06/18 03:15:21;;;;;;;;;8.67;8.00;;;;;22.79;46.46;98733.16;5018001;27;102176;-82
2021/06/18 03:17:48;;;;;;;;;8.67;7.33;;;;;22.82;46.42;98736.22;5020468;27;102178;-81
2021/06/18 03:20:21;;;;;;;;;7.00;6.00;;;;;22.82;46.41;98738.97;5017054;27;107533;-81
2021/06/18 03:23:00;;;;;;;;;7.00;7.00;;;;;22.78;46.15;98729.59;5012888;27;103483;-82
2021/06/18 03:25:28;;;;;;;;;7.67;7.67;;;;;22.82;46.08;98736.22;5007978;27;104891;-81
2021/06/18 03:27:56;;;;;;;;;7.67;7.00;;;;;22.81;46.16;98731.78;5007249;27;102142;-81
2021/06/18 03:30:30;;;;;;;;;7.67;7.67;;;;;22.77;46.06;98730.69;5010657;27;104106;-82
2021/06/18 03:32:59;;;;;;;;;9.00;7.33;;;;;22.76;46.11;98731.78;4991373;27;101978;-81
2021/06/18 03:35:30;;;;;;;;;11.00;9.33;;;;;22.81;46.07;98733.72;5009472;27;104076;-81
2021/06/18 03:38:03;;;;;;;;;8.33;8.00;;;;;22.81;45.87;98736.47;4999672;27;102535;-81
2021/06/18 03:40:33;;;;;;;;;7.33;7.33;;;;;22.77;45.94;98738.97;4991782;27;104085;-82
2021/06/18 03:43:01;;;;;;;;;10.00;9.33;;;;;22.76;46.13;98737.31;4975014;28;102645;-81
2021/06/18 03:45:30;;;;;;;;;6.67;6.67;;;;;22.70;45.94;98732.88;5009795;27;102509;-82
2021/06/18 03:47:59;;;;;;;;;7.33;6.67;;;;;22.79;45.94;98747.78;4992591;28;102831;-81
2021/06/18 03:50:40;;;;;;;;;7.00;7.00;;;;;22.73;45.75;98732.34;4993789;28;103670;-81
2021/06/18 03:53:14;;;;;;;;;9.00;7.67;;;;;22.69;45.64;98728.47;4997717;27;104747;-81
2021/06/18 03:55:46;;;;;;;;;8.00;8.00;;;;;22.73;46.02;98743.38;4984795;28;102045;-82
2021/06/18 03:58:16;;;;;;;;;11.33;9.67;;;;;22.73;45.86;98745.31;5009426;27;103968;-81
2021/06/18 04:00:45;;;;;;;;;8.67;8.00;;;;;22.66;46.03;98734.50;4988146;28;103230;-82
2021/06/18 04:03:12;;;;;;;;;8.00;8.00;;;;;22.76;45.97;98753.84;4970407;28;103740;-81
2021/06/18 04:05:42;;;;;;;;;8.00;7.67;;;;;22.75;45.89;98751.34;5000713;28;102785;-82
2021/06/18 04:08:14;;;;;;;;;10.00;8.33;;;;;22.68;45.96;98746.09;5017936;27;102249;-82
2021/06/18 04:10:45;;;;;;;;;9.00;9.00;;;;;22.75;45.87;98762.38;4985043;28;104728;-81
2021/06/18 04:13:13;;;;;;;;;9.67;8.67;;;;;22.68;45.50;98751.63;4995189;27;103667;-81
2021/06/18 04:15:48;;;;;;;;;7.00;7.00;;;;;22.72;45.51;98761.00;4964308;28;102204;-82
2021/06/18 04:18:20;;;;;;;;;7.33;7.00;;;;;22.70;45.50;98760.44;4990157;27;102800;-81
2021/06/18 04:20:51;;;;;;;;;9.00;8.33;;;;;22.71;45.56;98767.63;4965861;28;104737;-81
2021/06/18 04:23:29;;;;;;;;;8.33;7.33;;;;;22.71;45.52;98773.13;4989942;27;102839;-81
2021/06/18 04:26:10;;;;;;;;;8.33;8.00;;;;;22.67;45.35;98767.31;4984098;27;102791;-82
2021/06/18 04:28:37;;;;;;;;;9.33;9.33;;;;;22.69;45.59;98772.56;4987996;28;102019;-81
2021/06/18 04:31:06;;;;;;;;;8.00;7.00;;;;;22.62;45.47;98758.22;4984996;28;103122;-81
2021/06/18 04:33:35;;;;;;;;;8.00;8.00;;;;;22.67;45.14;98772.00;4996507;27;102470;-81
2021/06/18 04:36:04;;;;;;;;;6.00;6.00;;;;;22.66;44.95;98779.44;4976565;28;102018;-81
2021/06/18 04:38:33;;;;;;;;;9.00;9.00;;;;;22.66;45.52;98770.34;4955792;27;102680;-81
2021/06/18 04:41:00;;;;;;;;;7.67;7.67;;;;;22.65;45.31;98779.72;4986731;27;103080;-81
2021/06/18 04:43:30;;;;;;;;;8.00;7.67;;;;;22.63;45.17;98776.41;4997155;27;102296;-82
2021/06/18 04:45:59;;;;;;;;;8.67;7.00;;;;;22.60;45.33;98774.22;4989652;27;102682;-80
2021/06/18 04:48:28;;;;;;;;;8.33;7.33;;;;;22.60;45.29;98774.22;4997682;27;102705;-81
2021/06/18 04:50:55;;;;;;;;;7.33;7.00;;;;;22.53;45.23;98754.34;4994743;28;104148;-81
2021/06/18 04:53:24;;;;;;;;;9.33;7.67;;;;;22.55;45.48;98757.69;4986291;28;103165;-82
2021/06/18 04:55:53;;;;;;;;;9.00;8.67;;;;;22.63;45.50;98781.94;4990002;28;102082;-82
2021/06/18 04:58:27;;;;;;;;;10.67;7.00;;;;;22.63;45.25;98781.94;4983002;28;102555;-82
2021/06/18 05:01:07;;;;;;;;;8.67;7.67;;;;;22.60;45.37;98776.97;4977859;27;104654;-81
2021/06/18 05:03:46;;;;;;;;;10.00;9.67;;;;;22.58;45.54;98768.97;4973240;28;102165;-81
2021/06/18 05:06:18;;;;;;;;;9.33;8.00;;;;;22.63;45.39;98781.94;4963413;28;102414;-82
2021/06/18 05:08:49;;;;;;;;;9.00;9.00;;;;;22.61;45.74;98779.44;4989383;27;103300;-82
2021/06/18 05:11:22;;;;;;;;;7.67;7.67;;;;;22.59;45.33;98769.81;4992674;27;111036;-82
2021/06/18 05:14:03;;;;;;;;;8.00;7.00;;;;;22.59;45.28;98762.38;4932001;27;102250;-82
2021/06/18 05:16:30;;;;;;;;;9.00;8.33;;;;;22.66;45.38;98787.72;4996299;28;102122;-82
2021/06/18 05:19:06;;;;;;;;;9.00;9.00;;;;;22.63;45.62;98776.41;5000245;27;104823;-82
2021/06/18 05:21:35;;;;;;;;;9.67;8.33;;;;;22.68;45.42;98787.44;4995896;27;104349;-80
2021/06/18 05:24:05;;;;;;;;;7.00;6.67;;;;;22.63;45.32;98773.66;4987636;28;101752;-81
2021/06/18 05:26:39;;;;;;;;;8.33;7.00;;;;;22.68;45.42;98784.69;4989711;27;101355;-80
2021/06/18 05:29:09;;;;;;;;;7.67;6.67;;;;;22.65;45.50;98783.31;4986330;27;102512;-81
2021/06/18 05:31:52;;;;;;;;;7.67;7.33;;;;;22.71;45.41;98789.69;4998832;27;107715;-81
2021/06/18 05:34:33;;;;;;;;;9.00;8.67;;;;;22.67;45.71;98772.00;4929070;28;102426;-82
2021/06/18 05:37:00;;;;;;;;;9.67;8.67;;;;;22.68;45.71;98770.91;4999612;27;102503;-82
2021/06/18 05:39:28;;;;;;;;;7.00;6.00;;;;;22.66;45.47;98770.34;5002635;27;102239;-82
2021/06/18 05:41:55;;;;;;;;;8.00;7.33;;;;;22.75;45.67;98788.03;5000998;27;102912;-82
2021/06/18 05:44:34;;;;;;;;;8.00;7.67;;;;;22.74;44.92;98783.59;4941984;27;102192;-82
2021/06/18 05:47:01;;;;;;;;;7.33;7.00;;;;;22.68;45.44;98780.00;4985624;27;102615;-81
2021/06/18 05:49:29;;;;;;;;;8.00;6.33;;;;;22.73;45.22;98781.16;4986773;28;102150;-81
2021/06/18 05:52:00;;;;;;;;;7.00;7.00;;;;;22.70;45.50;98777.00;4961706;28;102228;-81
2021/06/18 05:54:29;;;;;;;;;9.00;8.00;;;;;22.71;45.48;98770.38;4981372;28;102229;-81
2021/06/18 05:56:57;;;;;;;;;9.00;8.33;;;;;22.80;45.70;98787.19;4990404;28;102055;-81
2021/06/18 05:59:26;;;;;;;;;8.00;8.00;;;;;22.78;45.68;98784.75;4987164;28;103786;-80
2021/06/18 06:01:53;;;;;;;;;8.00;8.00;;;;;22.83;45.86;98794.94;4970754;28;107753;-81
2021/06/18 06:04:21;;;;;;;;;9.67;7.33;;;;;22.81;45.70;98786.09;4988722;28;101939;-82
2021/06/18 06:06:48;;;;;;;;;8.33;8.33;;;;;22.74;45.85;98769.03;4988490;28;103534;-80
2021/06/18 06:09:16;;;;;;;;;9.67;7.00;;;;;22.79;45.87;98783.59;4980706;28;105183;-80
2021/06/18 06:11:44;;;;;;;;;10.00;8.67;;;;;22.75;45.79;98768.72;4961048;28;104224;-80
2021/06/18 06:14:16;;;;;;;;;7.00;7.00;;;;;22.85;46.05;98785.28;4970598;28;103270;-80
2021/06/18 06:16:46;;;;;;;;;8.00;7.33;;;;;22.81;45.87;98783.34;4976392;28;102823;-81
2021/06/18 06:19:14;;;;;;;;;9.33;8.33;;;;;22.84;46.07;98791.88;4982196;28;102183;-81
2021/06/18 06:21:43;;;;;;;;;7.33;7.00;;;;;22.79;45.97;98775.34;4977189;28;104064;-80
2021/06/18 06:24:13;;;;;;;;;8.33;7.67;;;;;22.78;46.04;98770.94;4966203;28;102200;-80
2021/06/18 06:26:40;;;;;;;;;9.00;8.00;;;;;22.86;46.00;98786.94;4962323;28;102638;-84
2021/06/18 06:29:13;;;;;;;;;9.00;5.67;;;;;22.83;46.21;98770.13;4964906;28;102090;-81
2021/06/18 06:31:44;;;;;;;;;8.00;7.33;;;;;22.87;46.17;98785.84;4945693;28;103971;-81
2021/06/18 06:34:25;;;;;;;;;7.33;7.00;;;;;22.88;46.55;98794.91;4957775;28;102423;-81
2021/06/18 06:36:58;;;;;;;;;9.33;7.00;;;;;22.85;46.55;98787.19;4955237;28;102013;-81
2021/06/18 06:39:26;;;;;;;;;11.33;9.33;;;;;22.90;47.28;98788.03;4959866;28;102258;-81
2021/06/18 06:41:54;;;;;;;;;6.33;6.00;;;;;22.89;47.60;98780.84;4971811;28;110134;-81
2021/06/18 06:45:07;;;;;;;;;6.00;6.00;;;;;22.92;48.31;98790.53;4949307;28;102288;-81
2021/06/18 06:47:41;;;;;;;;;7.00;7.00;;;;;22.85;48.50;98779.75;4835554;28;102771;-81
2021/06/18 06:50:10;;;;;;;;;9.33;8.33;;;;;22.84;49.08;98777.28;4970646;28;102088;-81
2021/06/18 06:52:39;;;;;;;;;9.33;9.33;;;;;22.89;49.20;98782.78;4969037;28;102242;-81
2021/06/18 06:55:07;;;;;;;;;9.33;9.33;;;;;22.94;48.97;98793.81;4963677;28;105430;-80
2021/06/18 06:57:39;;;;;;;;;9.00;8.00;;;;;22.88;49.42;98767.34;4961266;28;103461;-81
2021/06/18 07:00:16;;;;;;;;;7.67;7.67;;;;;22.89;49.59;98774.50;4966621;28;102075;-80
2021/06/18 07:02:57;;;;;;;;;7.33;6.33;;;;;22.93;49.73;98776.44;4956501;28;108241;-80
2021/06/18 07:05:25;;;;;;;;;8.00;6.00;;;;;22.93;50.14;98781.97;4973177;28;102561;-80
2021/06/18 07:07:52;;;;;;;;;9.67;7.67;;;;;22.97;50.07;98782.22;4951716;28;104035;-80
2021/06/18 07:10:20;;;;;;;;;8.00;7.33;;;;;22.96;50.03;98778.66;4958600;28;102895;-80
2021/06/18 07:12:48;;;;;;;;;7.00;7.00;;;;;22.97;50.46;98780.28;4973080;28;102983;-80
2021/06/18 07:15:15;;;;;;;;;10.67;7.67;;;;;22.91;50.50;98769.56;4973185;28;102459;-80
2021/06/18 07:17:44;;;;;;;;;9.33;9.00;;;;;22.98;50.60;98775.59;4963652;28;103366;-80
2021/06/18 07:20:13;;;;;;;;;7.33;7.33;;;;;22.95;50.82;98774.25;4992492;27;102374;-80
2021/06/18 07:22:42;;;;;;;;;8.00;7.33;;;;;22.98;50.93;98778.38;4979440;28;104305;-81
2021/06/18 07:25:10;;;;;;;;;8.00;6.00;;;;;23.02;50.82;98782.22;4996588;27;102412;-79
2021/06/18 07:27:39;;;;;;;;;7.67;7.67;;;;;23.02;51.00;98776.72;5002665;27;102225;-80
2021/06/18 07:30:08;;;;;;;;;8.00;7.67;;;;;22.97;50.92;98766.50;4976757;27;102566;-81
2021/06/18 07:32:35;;;;;;;;;9.00;8.33;;;;;22.96;50.55;98762.13;4996931;27;104170;-80
2021/06/18 07:35:03;;;;;;;;;7.00;6.33;;;;;23.03;51.56;98775.59;5010351;27;102171;-81
2021/06/18 07:37:31;;;;;;;;;8.00;7.67;;;;;23.00;52.39;98765.97;4993999;27;102155;-81
2021/06/18 07:39:59;;;;;;;;;6.33;5.67;;;;;22.98;52.74;98764.59;4979005;28;103833;-82
2021/06/18 07:42:37;;;;;;;;;6.67;5.67;;;;;22.98;53.41;98765.41;4987213;28;104360;-80
2021/06/18 07:45:06;;;;;;;;;7.00;6.33;;;;;23.04;53.88;98760.72;4987607;27;102601;-80
2021/06/18 07:47:34;;;;;;;;;9.00;7.33;;;;;22.95;54.33;98757.69;4971166;27;102376;-80
2021/06/18 07:50:01;;;;;;;;;8.00;6.67;;;;;22.95;54.45;98757.69;5005299;27;102523;-81
2021/06/18 07:52:29;;;;;;;;;8.00;8.00;;;;;23.04;54.55;98763.47;4984445;28;104097;-80
2021/06/18 07:54:58;;;;;;;;;7.00;6.33;;;;;22.98;54.79;98753.53;4999183;28;102148;-80
2021/06/18 07:57:27;;;;;;;;;8.67;7.33;;;;;23.06;54.85;98769.53;5009665;27;102221;-79
2021/06/18 07:59:54;;;;;;;;;6.67;6.33;;;;;23.07;54.89;98766.50;4961165;28;102333;-80
2021/06/18 08:02:23;;;;;;;;;5.33;5.33;;;;;23.08;55.15;98767.34;4994174;27;103087;-80
2021/06/18 08:04:52;;;;;;;;;5.33;4.00;;;;;23.07;54.82;98766.50;5001607;27;102421;-79
2021/06/18 08:07:21;;;;;;;;;6.00;6.00;;;;;23.07;55.24;98765.66;4997079;27;102042;-80
2021/06/18 08:09:49;;;;;;;;;5.33;5.33;;;;;23.08;55.40;98770.91;4986789;28;102455;-80
2021/06/18 08:12:16;;;;;;;;;11.00;8.67;;;;;23.08;55.67;98784.72;5007645;27;104034;-79
2021/06/18 08:14:47;;;;;;;;;8.00;6.00;;;;;23.06;55.65;98773.13;4967363;28;103626;-79
2021/06/18 08:17:14;;;;;;;;;7.67;6.67;;;;;23.08;55.82;98770.91;4981796;27;103917;-80
2021/06/18 08:19:43;;;;;;;;;9.33;7.00;;;;;23.13;55.87;98784.72;4991377;27;102207;-80
2021/06/18 08:22:11;;;;;;;;;6.00;6.00;;;;;23.14;55.68;98778.06;4998140;28;103099;-80
2021/06/18 08:24:39;;;;;;;;;8.33;7.67;;;;;23.10;56.05;98765.09;5006935;27;104528;-80
2021/06/18 08:27:07;;;;;;;;;7.00;7.00;;;;;23.17;56.09;98775.88;5010822;27;102273;-80
2021/06/18 08:29:36;;;;;;;;;6.67;6.33;;;;;23.09;56.17;98766.25;4989090;27;102013;-80
2021/06/18 08:32:04;;;;;;;;;6.67;6.33;;;;;23.17;56.41;98764.84;5002231;27;104142;-79
2021/06/18 08:34:34;;;;;;;;;6.00;5.33;;;;;23.11;56.40;98764.84;4990971;27;102503;-80
2021/06/18 08:37:02;;;;;;;;;6.00;6.00;;;;;23.16;56.50;98763.16;5000212;27;102576;-80
2021/06/18 08:39:31;;;;;;;;;8.33;8.33;;;;;23.10;56.67;98751.31;5005938;27;102733;-80
2021/06/18 08:41:59;;;;;;;;;7.00;6.67;;;;;23.12;56.64;98755.47;4985295;28;104442;-81
2021/06/18 08:44:27;;;;;;;;;10.33;9.33;;;;;23.16;56.62;98752.13;4980326;28;102096;-80
2021/06/18 08:46:55;;;;;;;;;10.00;7.00;;;;;23.19;56.49;98763.44;5004925;28;102792;-80
2021/06/18 08:49:23;;;;;;;;;7.00;7.00;;;;;23.18;57.76;98749.94;4952848;28;102961;-80
2021/06/18 08:51:51;;;;;;;;;6.67;6.67;;;;;23.10;57.56;98738.34;4989695;28;103205;-81
2021/06/18 08:54:19;;;;;;;;;6.67;6.67;;;;;23.14;57.45;98733.94;4986295;28;103078;-80
2021/06/18 08:56:46;;;;;;;;;8.33;7.00;;;;;23.15;57.87;98740.28;4985192;27;102614;-79
2021/06/18 08:59:13;;;;;;;;;8.67;7.00;;;;;23.22;57.97;98742.75;4988549;27;102698;-80
2021/06/18 09:01:41;;;;;;;;;6.00;6.00;;;;;23.18;58.25;98733.38;5000320;27;104093;-80
2021/06/18 09:04:08;;;;;;;;;6.67;6.33;;;;;23.21;58.09;98733.66;5010671;27;102321;-79
2021/06/18 09:06:37;;;;;;;;;6.33;6.00;;;;;23.24;58.28;98740.53;5010364;27;102214;-80
2021/06/18 09:09:26;;;;;;;;;8.00;7.33;;;;;23.26;58.20;98735.56;5008981;27;102796;-80
2021/06/18 09:11:57;;;;;;;;;7.33;7.00;;;;;23.17;58.62;98723.44;4996379;27;103056;-80
2021/06/18 09:14:29;;;;;;;;;6.00;6.00;;;;;23.24;58.90;98727.56;4993494;27;102797;-80
2021/06/18 09:17:18;;;;;;;;;8.00;6.00;;;;;23.27;58.57;98731.72;5008439;27;102051;-80
2021/06/18 09:19:52;;;;;;;;;6.67;6.00;;;;;23.22;58.99;98720.69;4934579;27;102520;-80
2021/06/18 09:22:33;;;;;;;;;6.00;6.00;;;;;23.28;58.90;98722.34;4994534;27;105876;-79
2021/06/18 09:25:13;;;;;;;;;6.33;6.00;;;;;23.29;58.74;98723.97;4990826;27;103983;-79
2021/06/18 09:27:46;;;;;;;;;8.00;7.00;;;;;23.26;58.85;98713.50;4941053;27;102351;-80
2021/06/18 09:30:26;;;;;;;;;6.00;6.00;;;;;23.31;58.83;98716.25;4983476;28;102349;-80
2021/06/18 09:33:04;;;;;;;;;7.00;6.33;;;;;23.32;59.15;98720.66;4997200;27;109654;-79
2021/06/18 09:35:32;;;;;;;;;5.67;5.67;;;;;23.24;59.14;98704.66;4973020;28;102160;-79
2021/06/18 09:38:02;;;;;;;;;7.33;6.67;;;;;23.30;59.23;98714.59;4991449;27;102187;-80
2021/06/18 09:40:29;;;;;;;;;7.00;6.67;;;;;23.33;59.06;98719.53;4962389;28;102323;-80
2021/06/18 09:43:02;;;;;;;;;6.33;5.67;;;;;23.23;59.38;98703.84;4989762;28;107534;-80
2021/06/18 09:45:35;;;;;;;;;5.00;5.00;;;;;23.25;59.35;98707.16;4988432;27;102226;-80
2021/06/18 09:48:10;;;;;;;;;6.00;6.00;;;;;23.36;59.53;98716.22;5010201;27;102435;-80
2021/06/18 09:50:39;;;;;;;;;7.33;6.00;;;;;23.35;59.46;98712.63;5001883;27;102197;-79
2021/06/18 09:53:09;;;;;;;;;8.33;7.33;;;;;23.32;59.53;98707.69;4994395;27;103160;-80
2021/06/18 09:55:37;;;;;;;;;6.33;6.33;;;;;23.29;59.62;98708.22;4975919;28;102279;-80
2021/06/18 09:58:07;;;;;;;;;8.67;6.00;;;;;23.28;59.59;98703.03;4997266;27;102164;-79
2021/06/18 10:00:35;;;;;;;;;5.67;5.67;;;;;23.39;59.30;98715.66;4980026;28;103155;-78
2021/06/18 10:03:02;;;;;;;;;8.00;7.00;;;;;23.41;59.46;98721.75;4987331;27;104091;-79
2021/06/18 10:05:33;;;;;;;;;6.00;6.00;;;;;23.39;59.89;98702.69;4997247;27;102390;-79
2021/06/18 10:08:01;;;;;;;;;7.00;7.00;;;;;23.32;59.65;98701.34;4982843;28;102259;-79
2021/06/18 10:10:33;;;;;;;;;8.00;7.00;;;;;23.37;59.69;98704.88;4967740;28;104296;-78
2021/06/18 10:13:01;;;;;;;;;7.33;7.00;;;;;23.39;60.02;98708.22;4980181;28;109047;-79
2021/06/18 10:15:31;;;;;;;;;8.67;8.67;;;;;23.40;60.28;98711.81;4987988;28;102903;-78
2021/06/18 10:17:59;;;;;;;;;5.33;5.33;;;;;23.39;60.04;98707.38;4972381;28;102295;-79
2021/06/18 10:20:28;;;;;;;;;8.00;8.00;;;;;23.33;60.38;98697.44;4983674;28;102202;-79
2021/06/18 10:23:00;;;;;;;;;6.00;6.00;;;;;23.41;60.58;98705.19;4980885;28;103190;-79
2021/06/18 10:25:31;;;;;;;;;6.33;6.00;;;;;23.36;60.70;98694.97;4973926;28;102284;-80
2021/06/18 10:28:03;;;;;;;;;7.67;7.67;;;;;23.43;60.59;98697.44;4972782;28;104178;-79
2021/06/18 10:30:48;;;;;;;;;8.33;6.33;;;;;23.45;60.55;98706.28;4924047;28;102154;-79
2021/06/18 10:33:24;;;;;;;;;5.67;5.67;;;;;23.45;60.46;98695.25;4976406;28;104015;-79
2021/06/18 10:36:11;;;;;;;;;8.00;6.67;;;;;23.47;60.58;98693.84;4985019;27;102079;-79
2021/06/18 10:38:42;;;;;;;;;8.00;7.67;;;;;23.48;60.66;98697.44;4919539;28;102083;-79
2021/06/18 10:41:18;;;;;;;;;8.67;7.33;;;;;23.47;60.67;98693.03;4980895;28;103450;-79
2021/06/18 10:43:47;;;;;;;;;8.00;7.67;;;;;23.44;60.95;98688.06;4989319;27;104069;-80
2021/06/18 10:46:16;;;;;;;;;10.33;9.00;;;;;23.44;60.64;98677.88;4990046;28;102643;-79
2021/06/18 10:48:44;;;;;;;;;10.67;10.67;;;;;23.46;60.50;98683.13;4985919;28;102486;-79
2021/06/18 10:51:28;;;;;;;;;7.67;7.00;;;;;23.46;60.72;98675.63;4968269;28;103591;-80
2021/06/18 10:53:59;;;;;;;;;8.00;7.67;;;;;23.52;60.65;98684.72;4967873;28;103454;-80
2021/06/18 10:56:45;;;;;;;;;9.00;7.33;;;;;23.47;60.60;98668.19;4973399;27;102322;-79
2021/06/18 10:59:13;;;;;;;;;9.00;8.00;;;;;23.45;60.91;98662.13;4916967;27;102514;-80
2021/06/18 11:01:40;;;;;;;;;6.00;5.00;;;;;23.54;60.84;98677.81;4986222;27;102434;-80
2021/06/18 11:04:10;;;;;;;;;7.33;7.00;;;;;23.55;60.79;98673.09;4992081;27;104067;-80
2021/06/18 11:06:47;;;;;;;;;8.33;7.33;;;;;23.48;60.96;98667.91;4976965;27;102496;-79
2021/06/18 11:09:40;;;;;;;;;6.67;6.67;;;;;23.51;61.04;98669.25;4983733;28;102344;-80
2021/06/18 11:12:23;;;;;;;;;8.33;7.33;;;;;23.52;60.89;98670.91;4934128;28;102230;-80
2021/06/18 11:15:02;;;;;;;;;7.33;7.33;;;;;23.51;60.95;98677.53;4987878;27;102143;-79
2021/06/18 11:17:52;;;;;;;;;7.00;6.00;;;;;23.51;61.05;98666.50;4986421;28;102125;-79
2021/06/18 11:20:21;;;;;;;;;7.33;7.33;;;;;23.56;61.14;98674.75;4912924;28;102298;-78
2021/06/18 11:22:54;;;;;;;;;6.67;6.67;;;;;23.59;60.93;98670.63;4976832;28;102639;-80
2021/06/18 11:25:32;;;;;;;;;9.00;7.33;;;;;23.63;60.83;98675.31;4968560;28;103986;-79
2021/06/18 11:28:19;;;;;;;;;10.33;9.00;;;;;23.55;61.09;98662.88;4975764;27;102360;-80
2021/06/18 11:30:52;;;;;;;;;9.00;9.00;;;;;23.54;60.96;98658.50;4911978;28;102313;-80
2021/06/18 11:33:42;;;;;;;;;8.33;8.00;;;;;23.56;61.11;98650.75;4980867;27;103577;-80
2021/06/18 11:36:17;;;;;;;;;8.33;6.33;;;;;23.64;61.24;98649.31;4910064;28;107537;-79
2021/06/18 11:38:46;;;;;;;;;7.33;6.67;;;;;23.60;61.07;98650.16;4971976;28;102451;-79
2021/06/18 11:41:17;;;;;;;;;7.67;7.00;;;;;23.66;61.37;98658.16;4975643;28;102816;-79
2021/06/18 11:43:44;;;;;;;;;6.67;6.67;;;;;23.68;61.15;98647.66;4971780;28;102152;-79
2021/06/18 11:46:12;;;;;;;;;7.67;7.00;;;;;23.68;61.20;98652.34;4973435;28;102912;-80
2021/06/18 11:48:43;;;;;;;;;7.00;6.33;;;;;23.62;61.33;98642.44;4961217;28;102130;-80
2021/06/18 11:51:24;;;;;;;;;9.33;8.00;;;;;23.68;61.42;98644.91;4939433;28;102443;-79
2021/06/18 11:53:52;;;;;;;;;9.00;8.00;;;;;23.68;61.52;98644.91;4933403;28;102434;-80
2021/06/18 11:56:19;;;;;;;;;7.00;6.33;;;;;23.69;61.84;98643.78;4962665;28;105045;-80